createdAt,value
2022-11-07T00:00:18.816Z,11.85
2022-11-07T00:02:46.047Z,10.85
2022-11-07T00:05:19.794Z,11.18
2022-11-07T00:07:47.026Z,11.77
2022-11-07T00:10:14.234Z,10.80
2022-11-07T00:12:47.874Z,11.95
2022-11-07T00:15:15.144Z,10.68
2022-11-07T00:17:42.322Z,11.32
2022-11-07T00:20:16.752Z,10.95
2022-11-07T00:22:44.037Z,11.93
2022-11-07T00:25:17.875Z,11.80
2022-11-07T00:27:45.019Z,10.18
2022-11-07T00:30:12.465Z,10.65
2022-11-07T00:32:45.740Z,10.82
2022-11-07T00:35:12.835Z,10.30
2022-11-07T00:37:46.917Z,9.20
2022-11-07T00:40:14.023Z,9.32
2022-11-07T00:42:41.484Z,9.20
2022-11-07T00:45:15.728Z,9.02
2022-11-07T00:47:42.932Z,9.10
2022-11-07T00:50:16.867Z,9.02
2022-11-07T00:52:44.059Z,8.65
2022-11-07T00:55:11.153Z,8.15
2022-11-07T00:57:44.748Z,8.48
2022-11-07T01:00:18.721Z,8.95
2022-11-07T01:03:18.981Z,8.55
2022-11-07T01:05:55.649Z,7.78
2022-11-07T01:08:29.773Z,7.78
2022-11-07T01:10:57.399Z,8.35
2022-11-07T01:15:58.775Z,7.57
2022-11-07T01:18:26.138Z,8.48
2022-11-07T01:20:59.790Z,8.30
2022-11-07T01:23:26.884Z,8.40
2022-11-07T01:25:54.070Z,7.85
2022-11-07T01:28:27.750Z,7.85
2022-11-07T01:30:54.856Z,7.53
2022-11-07T01:33:28.779Z,7.95
2022-11-07T01:35:55.910Z,8.55
2022-11-07T01:38:23.168Z,8.63
2022-11-07T01:41:15.776Z,8.63
2022-11-07T01:43:46.066Z,8.48
2022-11-07T01:46:19.923Z,7.40
2022-11-07T01:49:07.929Z,7.25
2022-11-07T01:51:44.855Z,7.18
2022-11-07T01:54:19.697Z,7.07
2022-11-07T01:56:53.797Z,7.10
2022-11-07T01:59:29.755Z,7.20
2022-11-07T02:02:11.070Z,7.00
2022-11-07T02:04:38.361Z,7.18
2022-11-07T02:07:09.107Z,6.70
2022-11-07T02:09:42.753Z,6.25
2022-11-07T02:12:10.009Z,6.47
2022-11-07T02:14:43.876Z,6.63
2022-11-07T02:17:11.868Z,6.43
2022-11-07T02:19:51.180Z,8.20
2022-11-07T02:22:37.107Z,7.00
2022-11-07T02:25:12.944Z,6.20
2022-11-07T02:27:40.850Z,6.28
2022-11-07T02:30:10.926Z,6.50
2022-11-07T02:32:44.785Z,6.43
2022-11-07T02:35:30.412Z,5.90
2022-11-07T02:38:03.835Z,6.80
2022-11-07T02:40:31.405Z,6.32
2022-11-07T02:45:33.853Z,6.18
2022-11-07T02:48:07.890Z,5.97
2022-11-07T02:50:35.061Z,5.90
2022-11-07T02:53:09.029Z,6.05
2022-11-07T02:55:36.265Z,6.30
2022-11-07T02:58:03.412Z,5.85
2022-11-07T03:00:36.806Z,5.72
2022-11-07T03:03:03.957Z,6.03
2022-11-07T03:05:37.961Z,6.05
2022-11-07T03:08:05.201Z,5.43
2022-11-07T03:10:32.461Z,5.15
2022-11-07T03:13:05.816Z,6.03
2022-11-07T03:15:32.914Z,5.30
2022-11-07T03:18:06.970Z,5.85
2022-11-07T03:20:34.153Z,6.03
2022-11-07T03:23:01.358Z,5.10
2022-11-07T03:25:34.900Z,6.13
2022-11-07T03:28:02.045Z,5.97
2022-11-07T03:30:35.851Z,5.68
2022-11-07T03:33:02.950Z,4.97
2022-11-07T03:35:30.064Z,5.40
2022-11-07T03:38:03.935Z,5.57
2022-11-07T03:40:31.085Z,5.88
2022-11-07T03:42:58.229Z,5.15
2022-11-07T03:45:31.824Z,4.65
2022-11-07T03:47:58.956Z,6.07
2022-11-07T03:50:32.937Z,5.35
2022-11-07T03:53:00.228Z,5.55
2022-11-07T03:55:27.449Z,4.57
2022-11-07T03:58:00.824Z,5.35
2022-11-07T04:00:34.806Z,5.75
2022-11-07T04:03:16.202Z,5.18
2022-11-07T04:05:43.798Z,4.82
2022-11-07T04:08:11.026Z,5.22
2022-11-07T04:10:44.936Z,5.38
2022-11-07T04:13:30.928Z,5.00
2022-11-07T04:16:23.820Z,5.18
2022-11-07T04:18:50.921Z,5.88
2022-11-07T04:21:24.927Z,4.78
2022-11-07T04:23:52.038Z,4.40
2022-11-07T04:26:45.072Z,5.20
2022-11-07T04:29:12.191Z,4.47
2022-11-07T04:31:39.410Z,4.25
2022-11-07T04:34:12.822Z,4.90
2022-11-07T04:36:39.972Z,4.90
2022-11-07T04:39:13.964Z,4.45
2022-11-07T04:41:41.067Z,4.15
2022-11-07T04:44:08.516Z,4.05
2022-11-07T04:46:41.849Z,5.55
2022-11-07T04:49:08.945Z,4.70
2022-11-07T04:51:48.866Z,4.93
2022-11-07T04:54:16.056Z,4.28
2022-11-07T04:56:43.259Z,4.70
2022-11-07T04:59:16.815Z,4.90
2022-11-07T05:01:53.005Z,4.50
2022-11-07T05:04:26.874Z,4.72
2022-11-07T05:06:54.069Z,3.80
2022-11-07T05:09:21.343Z,4.03
2022-11-07T05:11:57.814Z,4.00
2022-11-07T05:14:25.043Z,3.45
2022-11-07T05:16:59.980Z,3.03
2022-11-07T05:19:27.283Z,4.05
2022-11-07T05:22:20.084Z,3.90
2022-11-07T05:24:47.241Z,3.65
2022-11-07T05:27:18.889Z,3.60
2022-11-07T05:29:52.898Z,3.25
2022-11-07T05:32:20.160Z,3.25
2022-11-07T05:34:54.052Z,3.22
2022-11-07T05:37:21.368Z,4.47
2022-11-07T05:39:52.457Z,3.10
2022-11-07T05:42:28.914Z,3.33
2022-11-07T05:45:02.758Z,3.63
2022-11-07T05:47:36.949Z,2.95
2022-11-07T05:50:10.788Z,3.00
2022-11-07T05:52:38.268Z,3.00
2022-11-07T05:57:38.749Z,2.20
2022-11-07T06:00:13.362Z,3.25
2022-11-07T06:02:47.902Z,2.90
2022-11-07T06:05:15.270Z,2.75
2022-11-07T06:07:42.355Z,2.70
2022-11-07T06:10:16.837Z,3.30
2022-11-07T06:12:44.028Z,2.90
2022-11-07T06:15:17.900Z,2.92
2022-11-07T06:17:44.988Z,3.10
2022-11-07T06:20:12.189Z,2.47
2022-11-07T06:22:45.919Z,3.15
2022-11-07T06:25:19.872Z,2.67
2022-11-07T06:27:47.162Z,2.75
2022-11-07T06:30:14.307Z,2.88
2022-11-07T06:32:51.874Z,2.67
2022-11-07T06:35:19.098Z,2.72
2022-11-07T06:37:56.001Z,2.72
2022-11-07T06:40:23.189Z,2.60
2022-11-07T06:42:50.380Z,2.30
2022-11-07T06:45:23.914Z,2.88
2022-11-07T06:47:51.310Z,2.40
2022-11-07T06:50:30.878Z,2.15
2022-11-07T06:53:01.738Z,2.30
2022-11-07T06:55:28.989Z,2.00
2022-11-07T06:58:06.938Z,2.38
2022-11-07T07:00:48.988Z,1.85
2022-11-07T07:03:22.865Z,1.75
2022-11-07T07:05:56.913Z,1.70
2022-11-07T07:08:24.229Z,1.55
2022-11-07T07:10:51.507Z,1.92
2022-11-07T07:13:24.781Z,1.60
2022-11-07T07:15:55.929Z,1.50
2022-11-07T07:18:29.801Z,1.30
2022-11-07T07:21:09.968Z,1.52
2022-11-07T07:23:45.122Z,1.27
2022-11-07T07:26:16.545Z,1.20
2022-11-07T07:28:44.392Z,1.35
2022-11-07T07:31:17.945Z,1.58
2022-11-07T07:33:46.000Z,1.10
2022-11-07T07:36:21.090Z,1.10
2022-11-07T07:38:48.641Z,1.20
2022-11-07T07:41:15.970Z,1.27
2022-11-07T07:43:49.896Z,1.60
2022-11-07T07:46:20.217Z,1.42
2022-11-07T07:48:54.212Z,1.38
2022-11-07T07:51:22.024Z,1.35
2022-11-07T07:53:49.203Z,1.50
2022-11-07T07:56:23.934Z,2.28
2022-11-07T07:58:51.583Z,2.67
2022-11-07T08:01:31.139Z,3.28
2022-11-07T08:04:01.804Z,4.35
2022-11-07T08:06:30.019Z,3.47
2022-11-07T08:09:03.944Z,5.05
2022-11-07T08:11:31.094Z,4.70
2022-11-07T08:14:01.277Z,5.50
2022-11-07T08:16:36.023Z,5.32
2022-11-07T08:19:03.315Z,5.47
2022-11-07T08:21:30.391Z,6.20
2022-11-07T08:24:03.980Z,6.03
2022-11-07T08:26:31.425Z,6.68
2022-11-07T08:29:05.035Z,5.57
2022-11-07T08:31:32.227Z,6.60
2022-11-07T08:33:59.781Z,6.53
2022-11-07T08:39:01.207Z,5.95
2022-11-07T08:41:28.395Z,5.70
2022-11-07T08:44:01.894Z,5.90
2022-11-07T08:46:29.074Z,6.28
2022-11-07T08:49:02.932Z,4.57
2022-11-07T08:51:30.127Z,5.32
2022-11-07T08:53:57.273Z,5.72
2022-11-07T08:56:30.993Z,5.15
2022-11-07T08:58:58.279Z,5.00
2022-11-07T09:01:56.090Z,4.90
2022-11-07T09:04:26.328Z,5.13
2022-11-07T09:06:59.978Z,5.00
2022-11-07T09:09:28.471Z,4.82
2022-11-07T09:11:55.595Z,4.80
2022-11-07T09:14:29.039Z,4.72
2022-11-07T09:16:56.203Z,4.35
2022-11-07T09:19:29.934Z,4.78
2022-11-07T09:21:57.510Z,4.40
2022-11-07T09:26:57.961Z,5.10
2022-11-07T09:29:25.240Z,4.60
2022-11-07T09:32:02.465Z,4.03
2022-11-07T09:34:39.643Z,4.95
2022-11-07T09:39:46.952Z,4.55
2022-11-07T09:42:14.200Z,4.00
2022-11-07T09:44:42.163Z,3.28
2022-11-07T09:47:20.886Z,3.63
2022-11-07T09:49:50.702Z,3.10
2022-11-07T09:52:44.047Z,3.53
2022-11-07T09:55:24.078Z,3.13
2022-11-07T09:57:59.879Z,3.47
2022-11-07T10:00:47.849Z,3.50
2022-11-07T10:03:21.934Z,3.40
2022-11-07T10:05:55.268Z,2.58
2022-11-07T10:08:47.954Z,2.88
2022-11-07T10:11:21.470Z,3.45
2022-11-07T10:13:54.949Z,3.08
2022-11-07T10:16:33.818Z,3.70
2022-11-07T10:19:22.951Z,3.88
2022-11-07T10:21:53.246Z,3.00
2022-11-07T10:24:44.932Z,2.65
2022-11-07T10:27:12.191Z,2.58
2022-11-07T10:29:51.944Z,2.22
2022-11-07T10:32:19.632Z,1.70
2022-11-07T10:34:59.161Z,1.90
2022-11-07T10:37:26.365Z,1.80
2022-11-07T10:39:53.520Z,2.00
2022-11-07T10:42:27.951Z,1.67
2022-11-07T10:44:55.831Z,1.70
2022-11-07T10:47:31.090Z,1.67
2022-11-07T10:49:59.864Z,1.67
2022-11-07T10:52:35.425Z,2.35
2022-11-07T10:55:06.303Z,1.83
2022-11-07T10:57:42.129Z,2.30
2022-11-07T11:00:48.907Z,1.80
2022-11-07T11:03:43.198Z,2.00
2022-11-07T11:06:26.860Z,1.77
2022-11-07T11:09:01.047Z,1.48
2022-11-07T11:11:36.836Z,1.60
2022-11-07T11:14:10.929Z,1.65
2022-11-07T11:16:46.917Z,1.90
2022-11-07T11:19:36.964Z,1.95
2022-11-07T11:22:17.860Z,1.50
2022-11-07T11:24:45.208Z,1.60
2022-11-07T11:27:17.049Z,1.80
2022-11-07T11:29:55.046Z,1.48
2022-11-07T11:32:55.002Z,1.98
2022-11-07T11:35:22.176Z,1.90
2022-11-07T11:37:52.950Z,2.08
2022-11-07T11:40:29.186Z,1.50
2022-11-07T11:43:19.659Z,2.30
2022-11-07T11:46:01.068Z,2.17
2022-11-07T11:48:46.785Z,2.28
2022-11-07T11:51:26.992Z,2.20
2022-11-07T11:53:54.291Z,1.80
2022-11-07T11:56:41.973Z,1.98
2022-11-07T11:59:37.909Z,2.42
2022-11-07T12:02:19.348Z,2.13
2022-11-07T12:04:52.559Z,1.92
2022-11-07T12:07:27.005Z,2.60
2022-11-07T12:10:06.572Z,2.25
2022-11-07T12:12:52.967Z,2.25
2022-11-07T12:15:20.026Z,2.35
2022-11-07T12:18:17.332Z,2.38
2022-11-07T12:20:59.665Z,2.25
2022-11-07T12:23:44.045Z,2.35
2022-11-07T12:26:40.777Z,2.70
2022-11-07T12:29:30.977Z,2.53
2022-11-07T12:32:16.863Z,2.00
2022-11-07T12:35:22.963Z,2.08
2022-11-07T12:37:52.968Z,2.15
2022-11-07T12:40:45.042Z,2.28
2022-11-07T12:43:12.201Z,2.00
2022-11-07T12:46:09.995Z,2.50
2022-11-07T12:48:55.739Z,2.00
2022-11-07T12:51:47.071Z,2.45
2022-11-07T12:54:20.220Z,2.00
2022-11-07T12:56:56.267Z,2.13
2022-11-07T12:59:26.530Z,2.50
2022-11-07T13:02:16.176Z,1.83
2022-11-07T13:04:53.743Z,2.50
2022-11-07T13:07:37.022Z,2.00
2022-11-07T13:10:22.889Z,2.03
2022-11-07T13:13:00.003Z,2.00
2022-11-07T13:15:27.324Z,2.30
2022-11-07T13:18:00.981Z,2.33
2022-11-07T13:20:29.687Z,2.00
2022-11-07T13:23:05.011Z,2.00
2022-11-07T13:25:33.041Z,2.00
2022-11-07T13:28:07.992Z,2.15
2022-11-07T13:30:36.943Z,2.10
2022-11-07T13:33:11.091Z,1.95
2022-11-07T13:35:39.124Z,2.22
2022-11-07T13:38:19.146Z,2.10
2022-11-07T13:40:50.670Z,2.65
2022-11-07T13:43:43.071Z,2.15
2022-11-07T13:46:23.909Z,2.25
2022-11-07T13:49:00.024Z,2.40
2022-11-07T13:51:38.903Z,2.00
2022-11-07T13:54:13.254Z,2.42
2022-11-07T13:56:52.113Z,2.22
2022-11-07T13:59:41.069Z,2.78
2022-11-07T14:02:28.694Z,2.30
2022-11-07T14:05:19.518Z,2.33
2022-11-07T14:07:48.336Z,2.33
2022-11-07T14:10:58.011Z,2.10
2022-11-07T14:13:29.457Z,2.08
2022-11-07T14:16:03.994Z,2.10
2022-11-07T14:18:38.038Z,2.15
2022-11-07T14:21:11.975Z,2.83
2022-11-07T14:23:45.096Z,3.22
2022-11-07T14:26:33.066Z,3.03
2022-11-07T14:29:03.700Z,3.23
2022-11-07T14:31:39.025Z,3.50
2022-11-07T14:34:17.942Z,3.03
2022-11-07T14:36:58.994Z,3.70
2022-11-07T14:39:27.556Z,3.47
2022-11-07T14:42:03.208Z,3.20
2022-11-07T14:44:47.498Z,3.40
2022-11-07T14:47:39.213Z,3.45
2022-11-07T14:50:06.791Z,3.25
2022-11-07T14:55:10.078Z,4.43
2022-11-07T14:57:38.334Z,4.45
2022-11-07T15:00:13.062Z,3.50
2022-11-07T15:02:47.052Z,3.30
2022-11-07T15:05:31.074Z,3.47
2022-11-07T15:07:59.464Z,2.97
2022-11-07T15:10:34.998Z,3.10
2022-11-07T15:13:03.884Z,2.90
2022-11-07T15:15:42.057Z,3.22
2022-11-07T15:20:37.842Z,2.63
2022-11-07T15:23:13.033Z,2.92
2022-11-07T15:25:47.957Z,2.25
2022-11-07T15:28:18.493Z,3.30
2022-11-07T15:30:47.030Z,3.90
2022-11-07T15:33:21.049Z,3.00
2022-11-07T15:35:49.141Z,2.83
2022-11-07T15:38:27.075Z,3.20
2022-11-07T15:40:54.537Z,3.30
2022-11-07T15:43:22.314Z,3.40
2022-11-07T15:45:58.007Z,3.67
2022-11-07T15:48:28.851Z,3.17
2022-11-07T17:17:03.958Z,4.20
2022-11-07T17:19:45.030Z,4.05
2022-11-07T17:22:19.051Z,4.43
2022-11-07T17:24:46.342Z,4.03
2022-11-07T17:27:28.027Z,4.97
2022-11-07T17:29:55.303Z,3.78
2022-11-07T17:32:35.240Z,4.32
2022-11-07T17:35:31.151Z,4.93
2022-11-07T17:38:03.978Z,5.07
2022-11-07T17:40:39.004Z,4.55
2022-11-07T17:43:06.167Z,4.35
2022-11-07T17:45:33.314Z,4.68
2022-11-07T17:48:06.977Z,3.65
2022-11-07T17:50:34.357Z,4.60
2022-11-07T17:53:07.976Z,4.32
2022-11-07T17:55:35.311Z,4.40
2022-11-07T17:58:02.412Z,4.70
2022-11-07T18:00:43.189Z,5.32
2022-11-07T18:03:17.050Z,4.80
2022-11-07T18:05:51.164Z,4.65
2022-11-07T18:08:38.553Z,5.05
2022-11-07T18:11:13.269Z,4.63
2022-11-07T18:13:40.794Z,4.38
2022-11-07T18:16:08.981Z,5.60
2022-11-07T18:18:43.064Z,3.55
2022-11-07T18:21:10.677Z,3.97
2022-11-07T18:26:12.592Z,3.95
2022-11-07T18:28:40.982Z,4.88
2022-11-07T18:31:16.133Z,4.93
2022-11-07T18:33:43.534Z,4.97
2022-11-07T18:36:19.222Z,5.20
2022-11-07T18:38:47.185Z,4.60
2022-11-07T18:41:16.178Z,6.00
2022-11-07T18:43:50.091Z,5.93
2022-11-07T18:46:22.016Z,5.50
2022-11-07T18:48:57.115Z,5.03
2022-11-07T18:51:25.138Z,5.10
2022-11-07T18:53:53.133Z,5.43
2022-11-07T18:56:27.086Z,5.00
2022-11-07T18:58:55.392Z,6.07
2022-11-07T19:01:33.455Z,5.47
2022-11-07T19:04:03.613Z,4.93
2022-11-07T19:06:31.215Z,5.00
2022-11-07T19:11:33.958Z,5.43
2022-11-07T19:14:08.286Z,5.40
2022-11-07T19:16:35.464Z,5.68
2022-11-07T19:19:15.560Z,5.30
2022-11-07T19:21:50.143Z,6.40
2022-11-07T19:24:17.382Z,5.18
2022-11-07T19:26:44.739Z,6.43
2022-11-07T19:29:19.163Z,5.97
2022-11-07T19:31:46.678Z,6.05
2022-11-07T19:34:13.835Z,6.53
2022-11-07T19:36:47.114Z,6.43
2022-11-07T19:39:14.294Z,6.03
2022-11-07T19:41:48.059Z,5.10
2022-11-07T19:44:15.443Z,5.80
2022-11-07T19:46:42.604Z,5.68
2022-11-07T19:49:16.274Z,5.63
2022-11-07T19:51:43.745Z,6.65
2022-11-07T19:54:10.907Z,6.70
2022-11-07T19:56:45.165Z,6.78
2022-11-07T19:59:19.029Z,5.95
2022-11-07T20:02:04.166Z,5.38
2022-11-07T20:04:40.276Z,5.55
2022-11-07T20:07:07.472Z,6.13
2022-11-07T20:09:35.034Z,5.63
2022-11-07T20:12:09.266Z,6.75
2022-11-07T20:14:37.460Z,5.20
2022-11-07T20:17:05.175Z,6.32
2022-11-07T20:19:40.443Z,5.43
2022-11-07T20:22:08.009Z,5.55
2022-11-07T20:24:42.215Z,5.97
2022-11-07T20:27:09.493Z,5.57
2022-11-07T20:29:44.207Z,5.75
2022-11-07T20:32:12.057Z,5.63
2022-11-07T20:34:39.236Z,5.63
2022-11-07T20:37:13.144Z,5.68
2022-11-07T20:39:44.227Z,5.47
2022-11-07T20:42:11.335Z,5.93
2022-11-07T20:44:45.186Z,6.10
2022-11-07T20:47:12.898Z,6.40
2022-11-07T20:49:48.268Z,6.25
2022-11-07T20:52:30.187Z,5.93
2022-11-07T20:55:11.255Z,6.10
2022-11-07T20:57:38.569Z,5.93
2022-11-07T21:00:06.073Z,5.55
2022-11-07T21:02:40.368Z,6.13
2022-11-07T21:05:22.961Z,5.80
2022-11-07T21:07:57.133Z,6.13
2022-11-07T21:10:24.284Z,5.93
2022-11-07T21:12:58.080Z,5.38
2022-11-07T21:15:25.349Z,5.65
2022-11-07T21:18:06.177Z,4.82
2022-11-07T21:20:40.632Z,5.13
2022-11-07T21:23:15.555Z,5.45
2022-11-07T21:25:48.501Z,5.32
2022-11-07T21:28:26.038Z,5.47
2022-11-07T21:31:07.163Z,5.50
2022-11-07T21:33:34.622Z,5.30
2022-11-07T21:36:08.050Z,5.88
2022-11-07T21:38:35.270Z,7.03
2022-11-07T21:41:12.208Z,6.07
2022-11-07T21:43:39.559Z,5.38
2022-11-07T21:46:20.064Z,5.32
2022-11-07T21:48:54.221Z,6.43
2022-11-07T21:51:29.064Z,6.38
2022-11-07T21:53:56.668Z,5.35
2022-11-07T21:58:58.920Z,6.25
2022-11-07T22:01:33.202Z,7.90
2022-11-07T22:04:09.387Z,6.53
2022-11-07T22:06:45.046Z,7.75
2022-11-07T22:09:14.640Z,7.22
2022-11-07T22:11:49.203Z,8.00
2022-11-07T22:14:17.624Z,8.27
2022-11-07T22:16:44.878Z,6.43
2022-11-07T22:19:19.133Z,8.05
2022-11-07T22:21:53.171Z,6.60
2022-11-07T22:24:27.381Z,8.32
2022-11-07T22:26:55.795Z,6.70
2022-11-07T22:29:22.908Z,7.13
2022-11-07T22:31:56.325Z,7.18
2022-11-07T22:34:23.612Z,7.65
2022-11-07T22:36:50.778Z,7.55
2022-11-07T22:39:24.152Z,8.27
2022-11-07T22:41:51.408Z,7.32
2022-11-07T22:44:25.087Z,8.95
2022-11-07T22:46:52.417Z,8.00
2022-11-07T22:49:26.228Z,8.02
2022-11-07T22:51:53.499Z,8.10
2022-11-07T22:54:20.602Z,8.07
2022-11-07T22:56:54.119Z,7.32
2022-11-07T22:59:21.568Z,8.25
2022-11-07T23:01:55.354Z,7.68
2022-11-07T23:04:22.924Z,8.68
2022-11-07T23:06:50.051Z,8.15
2022-11-07T23:09:24.180Z,7.13
2022-11-07T23:11:51.370Z,7.78
2022-11-07T23:14:26.178Z,6.47
2022-11-07T23:16:55.526Z,8.27
2022-11-07T23:19:36.413Z,7.57
2022-11-07T23:22:03.924Z,6.88
2022-11-07T23:27:05.298Z,7.95
2022-11-07T23:29:32.546Z,7.55
2022-11-07T23:31:59.634Z,7.97
2022-11-07T23:34:33.167Z,7.65
2022-11-07T23:37:07.082Z,7.38
2022-11-07T23:39:41.565Z,8.07
2022-11-07T23:42:11.741Z,8.05
2022-11-07T23:45:04.353Z,8.57
2022-11-07T23:47:50.170Z,7.63
2022-11-07T23:50:43.325Z,9.02
2022-11-07T23:53:30.444Z,8.02
2022-11-07T23:56:04.421Z,8.15
2022-11-07T23:58:50.135Z,8.77
